sensor_id;sensor_type;location;lat;lon;timestamp;temperature;humidity
19945;DHT22;10134;50.952;6.930;2023-01-15T00:00:10;10.00;99.90
19945;DHT22;10134;50.952;6.930;2023-01-15T00:02:41;9.90;99.90
19945;DHT22;10134;50.952;6.930;2023-01-15T00:05:08;9.90;99.90
19945;DHT22;10134;50.952;6.930;2023-01-15T00:07:35;9.80;99.90
19945;DHT22;10134;50.952;6.930;2023-01-15T00:10:03;9.80;99.90
19945;DHT22;10134;50.952;6.930;2023-01-15T00:12:31;9.70;99.90
19945;DHT22;10134;50.952;6.930;2023-01-15T00:14:58;9.70;99.90
19945;DHT22;10134;50.952;6.930;2023-01-15T00:17:25;9.70;99.90
19945;DHT22;10134;50.952;6.930;2023-01-15T00:19:53;9.60;99.90
19945;DHT22;10134;50.952;6.930;2023-01-15T00:22:20;9.60;99.90
19945;DHT22;10134;50.952;6.930;2023-01-15T00:24:47;9.60;99.90
19945;DHT22;10134;50.952;6.930;2023-01-15T00:27:33;9.60;99.90
19945;DHT22;10134;50.952;6.930;2023-01-15T00:30:10;9.50;99.90
19945;DHT22;10134;50.952;6.930;2023-01-15T00:32:39;9.40;99.90
19945;DHT22;10134;50.952;6.930;2023-01-15T00:35:11;9.40;99.90
19945;DHT22;10134;50.952;6.930;2023-01-15T00:37:38;9.40;99.90
19945;DHT22;10134;50.952;6.930;2023-01-15T00:40:06;9.30;99.90
19945;DHT22;10134;50.952;6.930;2023-01-15T00:42:34;9.30;99.90
19945;DHT22;10134;50.952;6.930;2023-01-15T00:45:04;9.20;99.90
19945;DHT22;10134;50.952;6.930;2023-01-15T00:47:40;9.10;99.90
19945;DHT22;10134;50.952;6.930;2023-01-15T00:50:13;9.10;99.90
19945;DHT22;10134;50.952;6.930;2023-01-15T00:52:41;9.10;99.90
19945;DHT22;10134;50.952;6.930;2023-01-15T00:55:08;9.10;99.90
19945;DHT22;10134;50.952;6.930;2023-01-15T00:57:36;9.20;99.90
19945;DHT22;10134;50.952;6.930;2023-01-15T01:00:04;9.20;99.90
19945;DHT22;10134;50.952;6.930;2023-01-15T01:02:31;9.20;99.90
19945;DHT22;10134;50.952;6.930;2023-01-15T01:04:59;9.10;99.90
19945;DHT22;10134;50.952;6.930;2023-01-15T01:07:26;9.10;99.90
19945;DHT22;10134;50.952;6.930;2023-01-15T01:09:54;9.00;99.90
19945;DHT22;10134;50.952;6.930;2023-01-15T01:12:21;9.00;99.90
19945;DHT22;10134;50.952;6.930;2023-01-15T01:14:49;9.00;99.90
19945;DHT22;10134;50.952;6.930;2023-01-15T01:17:17;8.90;99.90
19945;DHT22;10134;50.952;6.930;2023-01-15T01:19:44;8.90;99.90
19945;DHT22;10134;50.952;6.930;2023-01-15T01:22:11;8.90;99.90
19945;DHT22;10134;50.952;6.930;2023-01-15T01:24:39;8.90;99.90
19945;DHT22;10134;50.952;6.930;2023-01-15T01:27:06;8.90;99.90
19945;DHT22;10134;50.952;6.930;2023-01-15T01:29:33;8.90;99.90
19945;DHT22;10134;50.952;6.930;2023-01-15T01:32:01;8.90;99.90
19945;DHT22;10134;50.952;6.930;2023-01-15T01:34:28;8.80;99.90
19945;DHT22;10134;50.952;6.930;2023-01-15T01:36:55;8.80;99.90
19945;DHT22;10134;50.952;6.930;2023-01-15T01:39:25;8.70;99.90
19945;DHT22;10134;50.952;6.930;2023-01-15T01:41:53;8.70;99.90
19945;DHT22;10134;50.952;6.930;2023-01-15T01:47:04;8.70;99.90
19945;DHT22;10134;50.952;6.930;2023-01-15T01:49:33;8.70;99.90
19945;DHT22;10134;50.952;6.930;2023-01-15T01:52:12;8.70;99.90
19945;DHT22;10134;50.952;6.930;2023-01-15T01:54:43;8.70;99.90
19945;DHT22;10134;50.952;6.930;2023-01-15T01:57:14;8.70;99.90
19945;DHT22;10134;50.952;6.930;2023-01-15T01:59:43;8.70;99.90
19945;DHT22;10134;50.952;6.930;2023-01-15T02:02:11;8.70;99.90
19945;DHT22;10134;50.952;6.930;2023-01-15T02:04:39;8.60;99.90
19945;DHT22;10134;50.952;6.930;2023-01-15T02:07:07;8.70;99.90
19945;DHT22;10134;50.952;6.930;2023-01-15T02:09:34;8.70;99.90
19945;DHT22;10134;50.952;6.930;2023-01-15T02:14:50;8.70;99.90
19945;DHT22;10134;50.952;6.930;2023-01-15T02:20:47;8.70;99.90
19945;DHT22;10134;50.952;6.930;2023-01-15T02:23:59;8.70;99.90
19945;DHT22;10134;50.952;6.930;2023-01-15T02:29:23;8.60;99.90
19945;DHT22;10134;50.952;6.930;2023-01-15T02:31:52;8.60;99.90
19945;DHT22;10134;50.952;6.930;2023-01-15T02:34:28;8.60;99.90
19945;DHT22;10134;50.952;6.930;2023-01-15T02:37:12;8.60;99.90
19945;DHT22;10134;50.952;6.930;2023-01-15T02:39:43;8.60;99.90
19945;DHT22;10134;50.952;6.930;2023-01-15T02:42:13;8.60;99.90
19945;DHT22;10134;50.952;6.930;2023-01-15T02:44:48;8.60;99.90
19945;DHT22;10134;50.952;6.930;2023-01-15T02:47:21;8.70;99.90
19945;DHT22;10134;50.952;6.930;2023-01-15T02:49:53;8.60;99.90
19945;DHT22;10134;50.952;6.930;2023-01-15T02:52:26;8.70;99.90
19945;DHT22;10134;50.952;6.930;2023-01-15T02:55:06;8.60;99.90
19945;DHT22;10134;50.952;6.930;2023-01-15T02:57:41;8.60;99.90
19945;DHT22;10134;50.952;6.930;2023-01-15T03:00:12;8.60;99.90
19945;DHT22;10134;50.952;6.930;2023-01-15T03:02:55;8.60;99.90
19945;DHT22;10134;50.952;6.930;2023-01-15T03:05:30;8.50;99.90
19945;DHT22;10134;50.952;6.930;2023-01-15T03:08:04;8.60;99.90
19945;DHT22;10134;50.952;6.930;2023-01-15T03:10:41;8.50;99.90
19945;DHT22;10134;50.952;6.930;2023-01-15T03:13:15;8.50;99.90
19945;DHT22;10134;50.952;6.930;2023-01-15T03:15:57;8.50;99.90
19945;DHT22;10134;50.952;6.930;2023-01-15T03:18:55;8.50;99.90
19945;DHT22;10134;50.952;6.930;2023-01-15T03:24:10;8.50;99.90
19945;DHT22;10134;50.952;6.930;2023-01-15T03:26:39;8.50;99.90
19945;DHT22;10134;50.952;6.930;2023-01-15T03:29:07;8.50;99.90
19945;DHT22;10134;50.952;6.930;2023-01-15T03:31:35;8.50;99.90
19945;DHT22;10134;50.952;6.930;2023-01-15T03:34:04;8.50;99.90
19945;DHT22;10134;50.952;6.930;2023-01-15T03:36:33;8.60;99.90
19945;DHT22;10134;50.952;6.930;2023-01-15T03:39:02;8.60;99.90
19945;DHT22;10134;50.952;6.930;2023-01-15T03:47:26;8.50;99.90
19945;DHT22;10134;50.952;6.930;2023-01-15T03:50:17;8.50;99.90
19945;DHT22;10134;50.952;6.930;2023-01-15T03:56:02;8.50;99.90
19945;DHT22;10134;50.952;6.930;2023-01-15T03:58:42;8.50;99.90
19945;DHT22;10134;50.952;6.930;2023-01-15T04:01:17;8.50;99.90
19945;DHT22;10134;50.952;6.930;2023-01-15T04:03:48;8.50;99.90
19945;DHT22;10134;50.952;6.930;2023-01-15T04:06:18;8.40;99.90
19945;DHT22;10134;50.952;6.930;2023-01-15T04:08:46;8.50;99.90
19945;DHT22;10134;50.952;6.930;2023-01-15T04:11:22;8.50;99.90
19945;DHT22;10134;50.952;6.930;2023-01-15T04:13:53;8.50;99.90
19945;DHT22;10134;50.952;6.930;2023-01-15T04:16:37;8.50;99.90
19945;DHT22;10134;50.952;6.930;2023-01-15T04:19:04;8.50;99.90
19945;DHT22;10134;50.952;6.930;2023-01-15T04:21:34;8.50;99.90
19945;DHT22;10134;50.952;6.930;2023-01-15T04:24:01;8.50;99.90
19945;DHT22;10134;50.952;6.930;2023-01-15T04:26:28;8.40;99.90
19945;DHT22;10134;50.952;6.930;2023-01-15T04:28:56;8.40;99.90
19945;DHT22;10134;50.952;6.930;2023-01-15T04:31:23;8.40;99.90
19945;DHT22;10134;50.952;6.930;2023-01-15T04:33:50;8.40;99.90
19945;DHT22;10134;50.952;6.930;2023-01-15T04:36:17;8.40;99.90
19945;DHT22;10134;50.952;6.930;2023-01-15T04:38:45;8.50;99.90
19945;DHT22;10134;50.952;6.930;2023-01-15T04:41:12;8.40;99.90
19945;DHT22;10134;50.952;6.930;2023-01-15T04:44:15;8.40;99.90
19945;DHT22;10134;50.952;6.930;2023-01-15T04:46:44;8.40;99.90
19945;DHT22;10134;50.952;6.930;2023-01-15T04:49:15;8.40;99.90
19945;DHT22;10134;50.952;6.930;2023-01-15T04:51:43;8.40;99.90
19945;DHT22;10134;50.952;6.930;2023-01-15T04:54:13;8.40;99.90
19945;DHT22;10134;50.952;6.930;2023-01-15T04:56:43;8.40;99.90
19945;DHT22;10134;50.952;6.930;2023-01-15T04:59:11;8.40;99.90
19945;DHT22;10134;50.952;6.930;2023-01-15T05:01:39;8.40;99.90
19945;DHT22;10134;50.952;6.930;2023-01-15T05:04:12;8.40;99.90
19945;DHT22;10134;50.952;6.930;2023-01-15T05:06:39;8.40;99.90
19945;DHT22;10134;50.952;6.930;2023-01-15T05:09:07;8.40;99.90
19945;DHT22;10134;50.952;6.930;2023-01-15T05:11:38;8.40;99.90
19945;DHT22;10134;50.952;6.930;2023-01-15T05:14:06;8.40;99.90
19945;DHT22;10134;50.952;6.930;2023-01-15T05:16:34;8.50;99.90
19945;DHT22;10134;50.952;6.930;2023-01-15T05:19:03;8.40;99.90
19945;DHT22;10134;50.952;6.930;2023-01-15T05:21:33;8.40;99.90
19945;DHT22;10134;50.952;6.930;2023-01-15T05:24:03;8.40;99.90
19945;DHT22;10134;50.952;6.930;2023-01-15T05:26:31;8.40;99.90
19945;DHT22;10134;50.952;6.930;2023-01-15T05:28:59;8.40;99.90
19945;DHT22;10134;50.952;6.930;2023-01-15T05:31:27;8.40;99.90
19945;DHT22;10134;50.952;6.930;2023-01-15T05:33:55;8.40;99.90
19945;DHT22;10134;50.952;6.930;2023-01-15T05:36:28;8.40;99.90
19945;DHT22;10134;50.952;6.930;2023-01-15T05:38:56;8.40;99.90
19945;DHT22;10134;50.952;6.930;2023-01-15T05:41:26;8.40;99.90
19945;DHT22;10134;50.952;6.930;2023-01-15T05:44:12;8.40;99.90
19945;DHT22;10134;50.952;6.930;2023-01-15T05:46:41;8.40;99.90
19945;DHT22;10134;50.952;6.930;2023-01-15T05:49:15;8.50;99.90
19945;DHT22;10134;50.952;6.930;2023-01-15T05:51:43;8.50;99.90
19945;DHT22;10134;50.952;6.930;2023-01-15T05:54:14;8.50;99.90
19945;DHT22;10134;50.952;6.930;2023-01-15T05:56:41;8.50;99.90
19945;DHT22;10134;50.952;6.930;2023-01-15T05:59:09;8.40;99.90
19945;DHT22;10134;50.952;6.930;2023-01-15T06:01:37;8.40;99.90
19945;DHT22;10134;50.952;6.930;2023-01-15T06:04:05;8.40;99.90
19945;DHT22;10134;50.952;6.930;2023-01-15T06:06:33;8.50;99.90
19945;DHT22;10134;50.952;6.930;2023-01-15T06:09:03;8.50;99.90
19945;DHT22;10134;50.952;6.930;2023-01-15T06:11:30;8.50;99.90
19945;DHT22;10134;50.952;6.930;2023-01-15T06:13:58;8.50;99.90
19945;DHT22;10134;50.952;6.930;2023-01-15T06:16:26;8.50;99.90
19945;DHT22;10134;50.952;6.930;2023-01-15T06:18:53;8.50;99.90
19945;DHT22;10134;50.952;6.930;2023-01-15T06:21:20;8.40;99.90
19945;DHT22;10134;50.952;6.930;2023-01-15T06:23:48;8.40;99.90
19945;DHT22;10134;50.952;6.930;2023-01-15T06:26:17;8.40;99.90
19945;DHT22;10134;50.952;6.930;2023-01-15T06:28:45;8.40;99.90
19945;DHT22;10134;50.952;6.930;2023-01-15T06:31:14;8.40;99.90
19945;DHT22;10134;50.952;6.930;2023-01-15T06:33:42;8.40;99.90
19945;DHT22;10134;50.952;6.930;2023-01-15T06:36:15;8.40;99.90
19945;DHT22;10134;50.952;6.930;2023-01-15T06:38:44;8.40;99.90
19945;DHT22;10134;50.952;6.930;2023-01-15T06:41:16;8.40;99.90
19945;DHT22;10134;50.952;6.930;2023-01-15T06:44:03;8.30;99.90
19945;DHT22;10134;50.952;6.930;2023-01-15T06:46:50;8.30;99.90
19945;DHT22;10134;50.952;6.930;2023-01-15T06:49:36;8.30;99.90
19945;DHT22;10134;50.952;6.930;2023-01-15T06:52:05;8.30;99.90
19945;DHT22;10134;50.952;6.930;2023-01-15T06:54:33;8.30;99.90
19945;DHT22;10134;50.952;6.930;2023-01-15T06:57:00;8.30;99.90
19945;DHT22;10134;50.952;6.930;2023-01-15T06:59:28;8.30;99.90
19945;DHT22;10134;50.952;6.930;2023-01-15T07:01:55;8.30;99.90
19945;DHT22;10134;50.952;6.930;2023-01-15T07:04:22;8.30;99.90
19945;DHT22;10134;50.952;6.930;2023-01-15T07:06:49;8.30;99.90
19945;DHT22;10134;50.952;6.930;2023-01-15T07:09:17;8.20;99.90
19945;DHT22;10134;50.952;6.930;2023-01-15T07:11:44;8.10;99.90
19945;DHT22;10134;50.952;6.930;2023-01-15T07:14:22;8.10;99.90
19945;DHT22;10134;50.952;6.930;2023-01-15T07:16:51;8.10;99.90
19945;DHT22;10134;50.952;6.930;2023-01-15T07:19:18;8.10;99.90
19945;DHT22;10134;50.952;6.930;2023-01-15T07:21:46;8.10;99.90
19945;DHT22;10134;50.952;6.930;2023-01-15T07:24:15;8.10;99.90
19945;DHT22;10134;50.952;6.930;2023-01-15T07:26:44;8.00;99.90
19945;DHT22;10134;50.952;6.930;2023-01-15T07:29:14;8.00;99.90
19945;DHT22;10134;50.952;6.930;2023-01-15T07:31:42;8.00;99.90
19945;DHT22;10134;50.952;6.930;2023-01-15T07:34:09;7.90;99.90
19945;DHT22;10134;50.952;6.930;2023-01-15T07:36:37;7.90;99.90
19945;DHT22;10134;50.952;6.930;2023-01-15T07:39:06;7.90;99.90
19945;DHT22;10134;50.952;6.930;2023-01-15T07:41:33;7.80;99.90
19945;DHT22;10134;50.952;6.930;2023-01-15T07:44:20;7.80;99.90
19945;DHT22;10134;50.952;6.930;2023-01-15T07:47:20;7.80;99.90
19945;DHT22;10134;50.952;6.930;2023-01-15T07:50:10;7.70;99.90
19945;DHT22;10134;50.952;6.930;2023-01-15T07:52:38;7.80;99.90
19945;DHT22;10134;50.952;6.930;2023-01-15T07:55:05;7.80;99.90
19945;DHT22;10134;50.952;6.930;2023-01-15T07:57:35;7.80;99.90
19945;DHT22;10134;50.952;6.930;2023-01-15T08:00:05;7.80;99.90
19945;DHT22;10134;50.952;6.930;2023-01-15T08:02:38;7.80;99.90
19945;DHT22;10134;50.952;6.930;2023-01-15T08:05:07;7.80;99.90
19945;DHT22;10134;50.952;6.930;2023-01-15T08:07:39;7.80;99.90
19945;DHT22;10134;50.952;6.930;2023-01-15T08:10:09;7.80;99.90
19945;DHT22;10134;50.952;6.930;2023-01-15T08:12:36;7.90;99.90
19945;DHT22;10134;50.952;6.930;2023-01-15T08:15:24;7.90;99.90
19945;DHT22;10134;50.952;6.930;2023-01-15T08:17:52;7.90;99.90
19945;DHT22;10134;50.952;6.930;2023-01-15T08:20:25;7.90;99.90
19945;DHT22;10134;50.952;6.930;2023-01-15T08:22:52;7.90;99.90
19945;DHT22;10134;50.952;6.930;2023-01-15T08:25:22;7.90;99.90
19945;DHT22;10134;50.952;6.930;2023-01-15T08:27:52;7.80;99.90
19945;DHT22;10134;50.952;6.930;2023-01-15T08:30:23;7.80;99.90
19945;DHT22;10134;50.952;6.930;2023-01-15T08:32:51;7.70;99.90
19945;DHT22;10134;50.952;6.930;2023-01-15T08:35:18;7.70;99.90
19945;DHT22;10134;50.952;6.930;2023-01-15T08:37:46;7.70;99.90
19945;DHT22;10134;50.952;6.930;2023-01-15T08:40:13;7.70;99.90
19945;DHT22;10134;50.952;6.930;2023-01-15T08:42:40;7.70;99.90
19945;DHT22;10134;50.952;6.930;2023-01-15T08:45:09;7.60;99.90
19945;DHT22;10134;50.952;6.930;2023-01-15T08:47:36;7.50;99.90
19945;DHT22;10134;50.952;6.930;2023-01-15T08:50:05;7.40;99.90
19945;DHT22;10134;50.952;6.930;2023-01-15T08:52:33;7.30;99.90
19945;DHT22;10134;50.952;6.930;2023-01-15T08:55:01;7.30;99.90
19945;DHT22;10134;50.952;6.930;2023-01-15T08:57:28;7.20;99.90
19945;DHT22;10134;50.952;6.930;2023-01-15T08:59:55;7.20;99.90
19945;DHT22;10134;50.952;6.930;2023-01-15T09:02:23;7.30;99.90
19945;DHT22;10134;50.952;6.930;2023-01-15T09:04:50;7.30;99.90
19945;DHT22;10134;50.952;6.930;2023-01-15T09:07:19;7.30;99.90
19945;DHT22;10134;50.952;6.930;2023-01-15T09:09:46;7.30;99.90
19945;DHT22;10134;50.952;6.930;2023-01-15T09:12:13;7.30;99.90
19945;DHT22;10134;50.952;6.930;2023-01-15T09:14:41;7.30;99.90
19945;DHT22;10134;50.952;6.930;2023-01-15T09:17:29;7.30;99.90
19945;DHT22;10134;50.952;6.930;2023-01-15T09:19:57;7.30;99.90
19945;DHT22;10134;50.952;6.930;2023-01-15T09:22:25;7.30;99.90
19945;DHT22;10134;50.952;6.930;2023-01-15T09:24:56;7.30;99.90
19945;DHT22;10134;50.952;6.930;2023-01-15T09:27:23;7.20;99.90
19945;DHT22;10134;50.952;6.930;2023-01-15T09:29:51;7.20;99.90
19945;DHT22;10134;50.952;6.930;2023-01-15T09:32:18;7.20;99.90
19945;DHT22;10134;50.952;6.930;2023-01-15T09:34:45;7.20;99.90
19945;DHT22;10134;50.952;6.930;2023-01-15T09:37:13;7.20;99.90
19945;DHT22;10134;50.952;6.930;2023-01-15T09:39:40;7.20;99.90
19945;DHT22;10134;50.952;6.930;2023-01-15T09:42:28;7.20;99.90
19945;DHT22;10134;50.952;6.930;2023-01-15T09:47:37;7.30;99.90
19945;DHT22;10134;50.952;6.930;2023-01-15T09:50:17;7.40;99.90
19945;DHT22;10134;50.952;6.930;2023-01-15T09:57:57;7.50;99.90
19945;DHT22;10134;50.952;6.930;2023-01-15T10:00:28;7.60;99.90
19945;DHT22;10134;50.952;6.930;2023-01-15T10:08:29;7.70;99.90
19945;DHT22;10134;50.952;6.930;2023-01-15T10:11:00;7.70;99.90
19945;DHT22;10134;50.952;6.930;2023-01-15T10:16:35;7.80;99.90
19945;DHT22;10134;50.952;6.930;2023-01-15T10:19:03;7.90;99.90
19945;DHT22;10134;50.952;6.930;2023-01-15T10:21:36;7.90;99.90
19945;DHT22;10134;50.952;6.930;2023-01-15T10:27:30;7.90;99.90
19945;DHT22;10134;50.952;6.930;2023-01-15T10:38:20;8.20;99.90
19945;DHT22;10134;50.952;6.930;2023-01-15T10:41:24;8.20;99.90
19945;DHT22;10134;50.952;6.930;2023-01-15T10:43:54;8.30;99.90
19945;DHT22;10134;50.952;6.930;2023-01-15T10:46:28;8.30;99.90
19945;DHT22;10134;50.952;6.930;2023-01-15T10:49:04;8.30;99.90
19945;DHT22;10134;50.952;6.930;2023-01-15T10:54:27;8.40;99.90
19945;DHT22;10134;50.952;6.930;2023-01-15T10:57:14;8.50;99.90
19945;DHT22;10134;50.952;6.930;2023-01-15T11:00:11;8.50;99.90
19945;DHT22;10134;50.952;6.930;2023-01-15T11:02:44;8.60;99.90
19945;DHT22;10134;50.952;6.930;2023-01-15T11:05:18;8.60;99.90
19945;DHT22;10134;50.952;6.930;2023-01-15T11:07:51;8.70;99.90
19945;DHT22;10134;50.952;6.930;2023-01-15T11:10:39;8.70;99.90
19945;DHT22;10134;50.952;6.930;2023-01-15T11:13:22;8.80;99.90
19945;DHT22;10134;50.952;6.930;2023-01-15T11:16:16;8.80;99.90
19945;DHT22;10134;50.952;6.930;2023-01-15T11:19:32;8.90;99.90
19945;DHT22;10134;50.952;6.930;2023-01-15T11:22:12;8.90;99.90
19945;DHT22;10134;50.952;6.930;2023-01-15T11:24:57;8.90;99.90
19945;DHT22;10134;50.952;6.930;2023-01-15T11:27:27;9.00;99.90
19945;DHT22;10134;50.952;6.930;2023-01-15T11:29:58;9.00;99.90
19945;DHT22;10134;50.952;6.930;2023-01-15T11:32:34;9.00;99.90
19945;DHT22;10134;50.952;6.930;2023-01-15T11:35:15;9.00;99.90
19945;DHT22;10134;50.952;6.930;2023-01-15T11:37:42;9.00;99.90
19945;DHT22;10134;50.952;6.930;2023-01-15T11:40:18;9.00;99.90
19945;DHT22;10134;50.952;6.930;2023-01-15T11:42:48;9.00;99.90
19945;DHT22;10134;50.952;6.930;2023-01-15T11:45:45;9.00;99.90
19945;DHT22;10134;50.952;6.930;2023-01-15T11:48:41;9.00;99.90
19945;DHT22;10134;50.952;6.930;2023-01-15T11:51:30;9.00;99.90
19945;DHT22;10134;50.952;6.930;2023-01-15T11:54:03;9.00;99.90
19945;DHT22;10134;50.952;6.930;2023-01-15T11:56:32;9.10;99.90
19945;DHT22;10134;50.952;6.930;2023-01-15T11:59:02;9.10;99.90
19945;DHT22;10134;50.952;6.930;2023-01-15T12:01:34;9.10;99.90
19945;DHT22;10134;50.952;6.930;2023-01-15T12:04:06;9.10;99.90
19945;DHT22;10134;50.952;6.930;2023-01-15T12:06:48;9.10;99.90
19945;DHT22;10134;50.952;6.930;2023-01-15T12:12:39;9.10;99.90
19945;DHT22;10134;50.952;6.930;2023-01-15T12:18:04;9.00;99.90
19945;DHT22;10134;50.952;6.930;2023-01-15T12:20:56;8.90;99.90
19945;DHT22;10134;50.952;6.930;2023-01-15T12:26:17;8.90;99.90
19945;DHT22;10134;50.952;6.930;2023-01-15T12:31:51;9.00;99.90
19945;DHT22;10134;50.952;6.930;2023-01-15T12:34:24;9.00;99.90
19945;DHT22;10134;50.952;6.930;2023-01-15T12:37:24;9.10;99.90
19945;DHT22;10134;50.952;6.930;2023-01-15T12:42:34;9.20;99.90
19945;DHT22;10134;50.952;6.930;2023-01-15T12:45:30;9.20;99.90
19945;DHT22;10134;50.952;6.930;2023-01-15T12:48:20;9.20;99.90
19945;DHT22;10134;50.952;6.930;2023-01-15T12:50:53;9.20;99.90
19945;DHT22;10134;50.952;6.930;2023-01-15T12:53:47;9.20;99.90
19945;DHT22;10134;50.952;6.930;2023-01-15T12:56:23;9.30;99.90
19945;DHT22;10134;50.952;6.930;2023-01-15T13:04:51;9.30;99.90
19945;DHT22;10134;50.952;6.930;2023-01-15T13:07:24;9.30;99.90
19945;DHT22;10134;50.952;6.930;2023-01-15T13:10:00;9.30;99.90
19945;DHT22;10134;50.952;6.930;2023-01-15T13:12:33;9.40;99.90
19945;DHT22;10134;50.952;6.930;2023-01-15T13:15:02;9.50;99.90
19945;DHT22;10134;50.952;6.930;2023-01-15T13:23:05;9.50;99.60
19945;DHT22;10134;50.952;6.930;2023-01-15T13:25:51;9.50;99.50
19945;DHT22;10134;50.952;6.930;2023-01-15T13:34:01;9.40;99.50
19945;DHT22;10134;50.952;6.930;2023-01-15T13:36:41;9.40;99.60
19945;DHT22;10134;50.952;6.930;2023-01-15T13:39:22;9.40;99.50
19945;DHT22;10134;50.952;6.930;2023-01-15T13:41:52;9.40;99.60
19945;DHT22;10134;50.952;6.930;2023-01-15T13:44:46;9.40;99.30
19945;DHT22;10134;50.952;6.930;2023-01-15T13:47:21;9.40;99.10
19945;DHT22;10134;50.952;6.930;2023-01-15T13:49:55;9.40;99.00
19945;DHT22;10134;50.952;6.930;2023-01-15T13:52:32;9.40;99.20
19945;DHT22;10134;50.952;6.930;2023-01-15T13:55:25;9.40;99.00
19945;DHT22;10134;50.952;6.930;2023-01-15T13:57:54;9.50;99.00
19945;DHT22;10134;50.952;6.930;2023-01-15T14:00:33;9.50;98.10
19945;DHT22;10134;50.952;6.930;2023-01-15T14:03:26;9.50;97.80
19945;DHT22;10134;50.952;6.930;2023-01-15T14:05:56;9.50;98.00
19945;DHT22;10134;50.952;6.930;2023-01-15T14:08:39;9.50;97.70
19945;DHT22;10134;50.952;6.930;2023-01-15T14:16:58;9.50;97.60
19945;DHT22;10134;50.952;6.930;2023-01-15T14:25:47;9.50;97.60
19945;DHT22;10134;50.952;6.930;2023-01-15T14:36:22;9.40;97.70
19945;DHT22;10134;50.952;6.930;2023-01-15T14:38:54;9.40;97.80
19945;DHT22;10134;50.952;6.930;2023-01-15T14:41:29;9.40;97.80
19945;DHT22;10134;50.952;6.930;2023-01-15T14:43:59;9.40;97.80
19945;DHT22;10134;50.952;6.930;2023-01-15T14:46:32;9.40;97.50
19945;DHT22;10134;50.952;6.930;2023-01-15T14:49:01;9.30;97.40
19945;DHT22;10134;50.952;6.930;2023-01-15T14:51:46;9.30;97.60
19945;DHT22;10134;50.952;6.930;2023-01-15T14:54:17;9.30;97.70
19945;DHT22;10134;50.952;6.930;2023-01-15T14:56:59;9.30;97.70
19945;DHT22;10134;50.952;6.930;2023-01-15T15:02:04;9.30;97.90
19945;DHT22;10134;50.952;6.930;2023-01-15T15:04:44;9.30;98.00
19945;DHT22;10134;50.952;6.930;2023-01-15T15:07:24;9.30;98.10
19945;DHT22;10134;50.952;6.930;2023-01-15T15:10:29;9.30;98.10
19945;DHT22;10134;50.952;6.930;2023-01-15T15:13:34;9.30;98.20
19945;DHT22;10134;50.952;6.930;2023-01-15T15:16:27;9.30;98.20
19945;DHT22;10134;50.952;6.930;2023-01-15T15:19:04;9.30;98.20
19945;DHT22;10134;50.952;6.930;2023-01-15T15:21:37;9.30;98.30
19945;DHT22;10134;50.952;6.930;2023-01-15T15:24:33;9.20;98.30
19945;DHT22;10134;50.952;6.930;2023-01-15T15:27:18;9.20;98.40
19945;DHT22;10134;50.952;6.930;2023-01-15T15:29:46;9.20;98.40
19945;DHT22;10134;50.952;6.930;2023-01-15T15:32:19;9.20;98.40
19945;DHT22;10134;50.952;6.930;2023-01-15T15:34:50;9.10;98.40
19945;DHT22;10134;50.952;6.930;2023-01-15T15:37:19;9.20;98.50
19945;DHT22;10134;50.952;6.930;2023-01-15T15:42:37;9.00;98.80
19945;DHT22;10134;50.952;6.930;2023-01-15T15:45:30;9.10;99.20
19945;DHT22;10134;50.952;6.930;2023-01-15T15:48:30;9.00;99.40
19945;DHT22;10134;50.952;6.930;2023-01-15T15:51:38;9.00;99.60
19945;DHT22;10134;50.952;6.930;2023-01-15T15:54:12;9.00;99.80
19945;DHT22;10134;50.952;6.930;2023-01-15T15:56:46;9.00;99.90
19945;DHT22;10134;50.952;6.930;2023-01-15T15:59:33;9.00;99.90
19945;DHT22;10134;50.952;6.930;2023-01-15T16:02:21;8.90;99.90
19945;DHT22;10134;50.952;6.930;2023-01-15T16:04:51;9.00;99.90
19945;DHT22;10134;50.952;6.930;2023-01-15T16:07:30;8.90;99.90
19945;DHT22;10134;50.952;6.930;2023-01-15T16:12:55;8.90;99.90
19945;DHT22;10134;50.952;6.930;2023-01-15T16:15:26;8.90;99.90
19945;DHT22;10134;50.952;6.930;2023-01-15T16:17:56;8.90;99.90
19945;DHT22;10134;50.952;6.930;2023-01-15T16:20:24;8.90;99.90
19945;DHT22;10134;50.952;6.930;2023-01-15T16:23:00;8.90;99.90
19945;DHT22;10134;50.952;6.930;2023-01-15T16:25:34;8.90;99.90
19945;DHT22;10134;50.952;6.930;2023-01-15T16:28:03;8.90;99.90
19945;DHT22;10134;50.952;6.930;2023-01-15T16:30:31;8.90;99.90
19945;DHT22;10134;50.952;6.930;2023-01-15T16:33:04;8.90;99.90
19945;DHT22;10134;50.952;6.930;2023-01-15T16:35:35;8.80;99.90
19945;DHT22;10134;50.952;6.930;2023-01-15T16:38:04;8.80;99.90
19945;DHT22;10134;50.952;6.930;2023-01-15T16:40:38;8.80;99.90
19945;DHT22;10134;50.952;6.930;2023-01-15T16:43:10;8.80;99.90
19945;DHT22;10134;50.952;6.930;2023-01-15T16:46:00;8.80;99.90
19945;DHT22;10134;50.952;6.930;2023-01-15T16:48:31;8.90;99.90
19945;DHT22;10134;50.952;6.930;2023-01-15T16:51:32;8.80;99.90
19945;DHT22;10134;50.952;6.930;2023-01-15T16:54:03;8.80;99.90
19945;DHT22;10134;50.952;6.930;2023-01-15T16:59:16;8.80;99.90
19945;DHT22;10134;50.952;6.930;2023-01-15T17:01:47;8.80;99.90
19945;DHT22;10134;50.952;6.930;2023-01-15T17:07:04;8.90;99.90
19945;DHT22;10134;50.952;6.930;2023-01-15T17:09:35;8.90;99.90
19945;DHT22;10134;50.952;6.930;2023-01-15T17:12:14;8.90;99.90
19945;DHT22;10134;50.952;6.930;2023-01-15T17:14:42;8.90;99.90
19945;DHT22;10134;50.952;6.930;2023-01-15T17:17:35;8.90;99.90
19945;DHT22;10134;50.952;6.930;2023-01-15T17:20:03;8.90;99.90
19945;DHT22;10134;50.952;6.930;2023-01-15T17:22:31;8.90;99.90
19945;DHT22;10134;50.952;6.930;2023-01-15T17:25:00;8.90;99.90
19945;DHT22;10134;50.952;6.930;2023-01-15T17:27:28;8.90;99.90
19945;DHT22;10134;50.952;6.930;2023-01-15T17:29:55;8.90;99.90
19945;DHT22;10134;50.952;6.930;2023-01-15T17:32:32;8.90;99.90
19945;DHT22;10134;50.952;6.930;2023-01-15T17:35:02;8.90;99.90
19945;DHT22;10134;50.952;6.930;2023-01-15T17:37:29;8.90;99.90
19945;DHT22;10134;50.952;6.930;2023-01-15T17:39:57;8.90;99.90
19945;DHT22;10134;50.952;6.930;2023-01-15T17:42:24;8.90;99.90
19945;DHT22;10134;50.952;6.930;2023-01-15T17:44:51;8.90;99.90
19945;DHT22;10134;50.952;6.930;2023-01-15T17:47:19;8.80;99.90
19945;DHT22;10134;50.952;6.930;2023-01-15T17:49:46;8.80;99.90
19945;DHT22;10134;50.952;6.930;2023-01-15T17:52:18;8.80;99.90
19945;DHT22;10134;50.952;6.930;2023-01-15T17:54:45;8.80;99.90
19945;DHT22;10134;50.952;6.930;2023-01-15T17:57:31;8.80;99.90
19945;DHT22;10134;50.952;6.930;2023-01-15T18:00:36;8.80;99.90
19945;DHT22;10134;50.952;6.930;2023-01-15T18:03:23;8.80;99.90
19945;DHT22;10134;50.952;6.930;2023-01-15T18:06:12;8.80;99.90
19945;DHT22;10134;50.952;6.930;2023-01-15T18:08:46;8.80;99.90
19945;DHT22;10134;50.952;6.930;2023-01-15T18:11:14;8.80;99.90
19945;DHT22;10134;50.952;6.930;2023-01-15T18:13:41;8.80;99.90
19945;DHT22;10134;50.952;6.930;2023-01-15T18:16:09;8.80;99.90
19945;DHT22;10134;50.952;6.930;2023-01-15T18:18:36;8.80;99.90
19945;DHT22;10134;50.952;6.930;2023-01-15T18:21:04;8.80;99.90
19945;DHT22;10134;50.952;6.930;2023-01-15T18:23:31;8.80;99.90